createdAt,value
2017-12-04T00:01:10.026Z,70.05
2017-12-04T00:03:37.474Z,69.72
2017-12-04T00:06:04.882Z,70.55
2017-12-04T00:08:32.313Z,66.20
2017-12-04T00:10:59.713Z,75.18
2017-12-04T00:13:27.956Z,74.10
2017-12-04T00:15:55.374Z,81.18
2017-12-04T00:18:22.789Z,69.72
2017-12-04T00:20:50.254Z,73.55
2017-12-04T00:23:17.717Z,72.00
2017-12-04T00:25:45.135Z,69.80
2017-12-04T00:28:14.093Z,68.30
2017-12-04T00:30:41.566Z,69.65
2017-12-04T00:33:08.997Z,65.93
2017-12-04T00:35:37.230Z,64.47
2017-12-04T00:38:04.709Z,74.28
2017-12-04T00:40:32.123Z,71.72
2017-12-04T00:43:00.322Z,82.70
2017-12-04T00:45:27.814Z,78.40
2017-12-04T00:47:55.243Z,79.00
2017-12-04T00:50:22.745Z,73.75
2017-12-04T00:52:50.232Z,84.60
2017-12-04T00:55:17.656Z,79.05
2017-12-04T00:57:45.074Z,70.45
2017-12-04T01:00:12.491Z,76.32
2017-12-04T01:02:39.903Z,65.35
2017-12-04T01:05:07.365Z,61.85
2017-12-04T01:07:34.808Z,86.07
2017-12-04T01:10:03.127Z,76.57
2017-12-04T01:12:30.700Z,74.60
2017-12-04T01:14:58.122Z,69.07
2017-12-04T01:17:25.630Z,62.38
2017-12-04T01:19:53.032Z,63.55
2017-12-04T01:22:20.455Z,54.85
2017-12-04T01:24:48.630Z,74.85
2017-12-04T01:27:16.062Z,56.70
2017-12-04T01:29:43.482Z,63.42
2017-12-04T01:32:10.894Z,62.40
2017-12-04T01:34:38.357Z,58.63
2017-12-04T01:37:06.075Z,47.30
2017-12-04T01:39:33.490Z,56.05
2017-12-04T01:42:00.912Z,50.47
2017-12-04T01:44:28.333Z,55.47
2017-12-04T01:46:55.758Z,58.75
2017-12-04T01:49:23.173Z,62.58
2017-12-04T01:51:50.583Z,54.67
2017-12-04T01:54:18.023Z,60.60
2017-12-04T01:56:45.474Z,59.72
2017-12-04T01:59:12.899Z,51.15
2017-12-04T02:01:40.334Z,44.22
2017-12-04T02:04:07.751Z,44.65
2017-12-04T02:06:35.930Z,56.28
2017-12-04T02:09:04.121Z,51.33
2017-12-04T02:11:32.304Z,53.90
2017-12-04T02:13:59.717Z,47.20
2017-12-04T02:16:27.142Z,58.83
2017-12-04T02:18:55.334Z,53.13
2017-12-04T02:21:23.506Z,50.13
2017-12-04T02:23:51.726Z,52.80
2017-12-04T02:26:25.061Z,49.80
2017-12-04T02:28:52.493Z,50.20
2017-12-04T02:31:19.914Z,55.25
2017-12-04T02:33:47.331Z,40.38
2017-12-04T02:36:14.754Z,40.90
2017-12-04T02:38:42.192Z,37.63
2017-12-04T02:41:09.595Z,39.40
2017-12-04T02:43:37.026Z,42.87
2017-12-04T02:46:04.456Z,41.70
2017-12-04T02:48:32.631Z,37.72
2017-12-04T02:51:00.810Z,41.78
2017-12-04T02:53:29.035Z,45.72
2017-12-04T02:55:56.446Z,56.55
2017-12-04T02:58:23.993Z,39.28
2017-12-04T03:00:51.443Z,51.47
2017-12-04T03:03:18.874Z,43.42
2017-12-04T03:05:46.293Z,40.97
2017-12-04T03:08:13.750Z,41.00
2017-12-04T03:10:41.213Z,34.35
2017-12-04T03:13:08.689Z,37.17
2017-12-04T03:15:36.196Z,37.13
2017-12-04T03:18:03.626Z,40.15
2017-12-04T03:20:31.058Z,33.92
2017-12-04T03:22:59.243Z,36.20
2017-12-04T03:25:27.422Z,33.30
2017-12-04T03:27:54.941Z,35.45
2017-12-04T03:30:23.102Z,48.80
2017-12-04T03:32:51.278Z,47.62
2017-12-04T03:35:18.706Z,37.67
2017-12-04T03:37:46.125Z,34.80
2017-12-04T03:40:13.609Z,32.43
2017-12-04T03:42:41.039Z,35.15
2017-12-04T03:45:08.478Z,47.72
2017-12-04T03:47:35.901Z,43.05
2017-12-04T03:50:04.090Z,46.13
2017-12-04T03:52:31.509Z,35.53
2017-12-04T03:54:59.030Z,34.50
2017-12-04T03:57:26.504Z,36.40
2017-12-04T03:59:53.943Z,33.13
2017-12-04T04:02:22.130Z,42.17
2017-12-04T04:04:50.357Z,40.80
2017-12-04T04:07:17.785Z,42.97
2017-12-04T04:09:46.027Z,35.10
2017-12-04T04:12:13.443Z,34.22
2017-12-04T04:14:41.622Z,34.05
2017-12-04T04:17:09.809Z,39.83
2017-12-04T04:19:38.009Z,40.27
2017-12-04T04:22:06.189Z,30.10
2017-12-04T04:24:33.599Z,36.63
2017-12-04T04:27:01.046Z,30.80
2017-12-04T04:29:28.468Z,43.07
2017-12-04T04:31:55.890Z,34.70
2017-12-04T04:34:23.297Z,39.92
2017-12-04T04:36:50.729Z,28.53
2017-12-04T04:39:18.194Z,39.80
2017-12-04T04:41:45.659Z,28.67
2017-12-04T04:44:13.061Z,37.70
2017-12-04T04:46:40.482Z,33.00
2017-12-04T04:49:08.658Z,41.00
2017-12-04T04:51:36.837Z,35.33
2017-12-04T04:54:05.026Z,35.03
2017-12-04T04:56:33.220Z,31.97
2017-12-04T04:59:00.649Z,30.83
2017-12-04T05:01:28.082Z,30.98
2017-12-04T05:03:55.543Z,22.00
2017-12-04T05:06:23.026Z,33.10
2017-12-04T05:08:50.478Z,23.48
2017-12-04T05:11:17.882Z,25.83
2017-12-04T05:13:45.294Z,38.40
2017-12-04T05:16:13.474Z,29.52
2017-12-04T05:18:41.658Z,40.20
2017-12-04T05:21:09.834Z,42.93
2017-12-04T05:23:37.262Z,44.10
2017-12-04T05:26:04.681Z,38.33
2017-12-04T05:28:32.084Z,30.67
2017-12-04T05:30:59.546Z,25.40
2017-12-04T05:33:26.987Z,35.97
2017-12-04T05:35:54.392Z,32.47
2017-12-04T05:38:21.809Z,36.40
2017-12-04T05:40:49.218Z,39.73
2017-12-04T05:43:16.645Z,29.27
2017-12-04T05:45:44.059Z,39.80
2017-12-04T05:48:11.476Z,33.97
2017-12-04T05:50:38.901Z,30.58
2017-12-04T05:53:06.339Z,24.37
2017-12-04T05:55:34.537Z,27.83
2017-12-04T05:58:01.958Z,23.65
2017-12-04T06:00:29.366Z,28.87
2017-12-04T06:02:56.773Z,25.13
2017-12-04T06:05:24.182Z,21.83
2017-12-04T06:07:51.693Z,35.73
2017-12-04T06:10:19.102Z,25.27
2017-12-04T06:12:46.509Z,23.10
2017-12-04T06:15:13.922Z,24.52
2017-12-04T06:17:41.381Z,18.40
2017-12-04T06:20:08.826Z,23.30
2017-12-04T06:22:36.245Z,23.73
2017-12-04T06:27:46.231Z,22.42
2017-12-04T06:30:13.650Z,23.43
2017-12-04T06:32:41.061Z,24.47
2017-12-04T06:35:08.482Z,28.55
2017-12-04T06:37:35.942Z,31.65
2017-12-04T06:40:04.157Z,20.13
2017-12-04T06:42:31.549Z,30.60
2017-12-04T06:44:58.983Z,23.33
2017-12-04T06:47:26.391Z,31.43
2017-12-04T06:49:53.801Z,20.00
2017-12-04T06:52:21.224Z,20.50
2017-12-04T06:54:48.647Z,19.40
2017-12-04T06:57:16.070Z,22.27
2017-12-04T06:59:43.500Z,17.40
2017-12-04T07:02:10.973Z,18.40
2017-12-04T07:04:38.406Z,16.03
2017-12-04T07:07:06.689Z,16.00
2017-12-04T07:09:34.093Z,18.83
2017-12-04T07:12:01.511Z,15.60
2017-12-04T07:14:28.931Z,18.13
2017-12-04T07:16:56.332Z,17.83
2017-12-04T07:19:23.763Z,16.00
2017-12-04T07:21:51.206Z,18.87
2017-12-04T07:24:19.416Z,22.30
2017-12-04T07:26:46.835Z,20.33
2017-12-04T07:29:14.231Z,25.47
2017-12-04T07:31:41.645Z,29.87
2017-12-04T07:34:09.190Z,37.23
2017-12-04T07:36:36.602Z,20.93
2017-12-04T07:39:04.777Z,30.87
2017-12-04T07:41:32.303Z,19.20
2017-12-04T07:43:59.783Z,16.10
2017-12-04T07:46:27.189Z,24.20
2017-12-04T07:48:54.617Z,25.70
2017-12-04T07:51:22.038Z,18.23
2017-12-04T07:53:49.448Z,24.33
2017-12-04T07:56:17.026Z,26.53
2017-12-04T07:58:44.774Z,24.67
2017-12-04T08:01:13.089Z,26.37
2017-12-04T08:03:41.250Z,35.00
2017-12-04T08:06:09.454Z,38.63
2017-12-04T08:08:36.890Z,28.00
2017-12-04T08:11:05.127Z,22.50
2017-12-04T08:13:32.532Z,32.07
2017-12-04T08:15:59.950Z,26.00
2017-12-04T08:18:27.355Z,32.47
2017-12-04T08:20:54.762Z,29.33
2017-12-04T08:23:23.238Z,31.67
2017-12-04T08:25:50.659Z,22.13
2017-12-04T08:28:18.086Z,36.40
2017-12-04T08:30:46.288Z,29.03
2017-12-04T08:33:14.445Z,30.37
2017-12-04T08:35:41.862Z,22.70
2017-12-04T08:38:09.435Z,23.07
2017-12-04T08:40:36.829Z,14.63
2017-12-04T08:43:05.242Z,21.47
2017-12-04T08:45:32.643Z,17.87
2017-12-04T08:48:00.058Z,14.73
2017-12-04T08:50:27.483Z,11.80
2017-12-04T08:52:54.896Z,16.13
2017-12-04T08:55:22.325Z,22.07
2017-12-04T08:57:49.729Z,17.77
2017-12-04T09:00:17.154Z,20.80
2017-12-04T09:02:44.628Z,17.53
2017-12-04T09:05:12.199Z,25.27
2017-12-04T09:07:39.635Z,24.17
2017-12-04T09:10:07.039Z,24.17
2017-12-04T09:12:34.452Z,26.27
2017-12-04T09:15:01.889Z,22.00
2017-12-04T09:17:29.279Z,23.37
2017-12-04T09:19:56.722Z,24.33
2017-12-04T09:22:24.122Z,26.63
2017-12-04T09:24:51.534Z,26.20
2017-12-04T09:27:18.977Z,23.63
2017-12-04T09:29:46.382Z,23.83
2017-12-04T09:32:13.797Z,22.40
2017-12-04T09:34:41.309Z,24.80
2017-12-04T09:37:08.771Z,22.03
2017-12-04T09:39:36.196Z,18.50
2017-12-04T09:42:03.630Z,15.20
2017-12-04T09:44:31.067Z,19.20
2017-12-04T09:46:59.249Z,27.27
2017-12-04T09:49:27.454Z,22.87
2017-12-04T09:51:54.867Z,16.70
2017-12-04T09:54:22.283Z,29.30
2017-12-04T09:56:50.458Z,19.10
2017-12-04T09:59:18.661Z,20.23
2017-12-04T10:01:46.134Z,16.00
2017-12-04T10:04:13.649Z,18.27
2017-12-04T10:06:41.058Z,26.93
2017-12-04T10:09:09.256Z,17.90
2017-12-04T10:11:36.678Z,24.47
2017-12-04T10:14:04.096Z,24.20
2017-12-04T10:16:31.518Z,17.70
2017-12-04T10:18:59.691Z,24.97
2017-12-04T10:21:27.127Z,15.07
2017-12-04T10:23:54.582Z,16.13
2017-12-04T10:26:21.999Z,18.43
2017-12-04T10:28:49.413Z,27.67
2017-12-04T10:31:16.990Z,13.43
2017-12-04T10:33:44.398Z,13.50
2017-12-04T10:36:11.805Z,14.90
2017-12-04T10:38:39.992Z,20.90
2017-12-04T10:41:08.169Z,12.27
2017-12-04T10:43:35.584Z,18.00
2017-12-04T10:46:02.996Z,19.93
2017-12-04T10:48:30.494Z,15.03
2017-12-04T10:50:57.904Z,11.83
2017-12-04T10:53:25.351Z,13.10
2017-12-04T10:55:53.646Z,26.00
2017-12-04T10:58:21.098Z,17.30
2017-12-04T11:00:48.538Z,17.07
2017-12-04T11:03:15.946Z,16.97
2017-12-04T11:05:43.361Z,24.37
2017-12-04T11:08:10.788Z,20.37
2017-12-04T11:10:38.209Z,12.83
2017-12-04T11:13:05.626Z,15.93
2017-12-04T11:15:33.072Z,20.50
2017-12-04T11:18:00.473Z,16.97
2017-12-04T11:20:27.894Z,15.00
2017-12-04T11:22:56.075Z,20.63
2017-12-04T11:25:24.274Z,15.10
2017-12-04T11:27:52.450Z,17.47
2017-12-04T11:30:20.634Z,16.80
2017-12-04T11:32:48.800Z,15.73
2017-12-04T11:35:16.220Z,20.83
2017-12-04T11:37:43.678Z,21.80
2017-12-04T11:40:11.150Z,26.33
2017-12-04T11:42:39.311Z,17.43
2017-12-04T11:45:07.645Z,28.03
2017-12-04T11:47:35.033Z,19.80
2017-12-04T11:50:02.450Z,16.60
2017-12-04T11:52:29.850Z,25.30
2017-12-04T11:54:57.267Z,19.30
2017-12-04T11:57:25.446Z,19.40
2017-12-04T11:59:53.689Z,21.27
2017-12-04T12:02:21.097Z,21.03
2017-12-04T12:04:48.528Z,17.80
2017-12-04T12:07:15.942Z,27.33
2017-12-04T12:09:44.160Z,17.10
2017-12-04T12:12:12.314Z,14.50
2017-12-04T12:14:40.487Z,18.40
2017-12-04T12:17:07.904Z,25.17
2017-12-04T12:19:35.313Z,20.63
2017-12-04T12:22:02.731Z,22.43
2017-12-04T12:24:30.304Z,15.87
2017-12-04T12:26:57.693Z,21.70
2017-12-04T12:29:25.139Z,10.67
2017-12-04T12:31:53.294Z,11.07
2017-12-04T12:34:22.242Z,13.80
2017-12-04T12:36:49.682Z,15.00
2017-12-04T12:39:17.097Z,11.03
2017-12-04T12:41:44.526Z,9.83
2017-12-04T12:44:11.966Z,16.83
2017-12-04T12:46:40.141Z,8.70
2017-12-04T12:49:07.564Z,13.23
2017-12-04T12:51:34.990Z,10.13
2017-12-04T12:54:03.275Z,9.87
2017-12-04T12:56:31.467Z,12.97
2017-12-04T12:58:59.647Z,16.80
2017-12-04T13:01:27.059Z,11.00
2017-12-04T13:03:54.474Z,6.93
2017-12-04T13:06:21.887Z,13.77
2017-12-04T13:08:49.298Z,12.90
2017-12-04T13:11:16.821Z,13.43
2017-12-04T13:13:44.234Z,14.60
2017-12-04T13:16:11.684Z,11.87
2017-12-04T13:18:39.230Z,17.33
2017-12-04T13:21:06.641Z,13.17
2017-12-04T13:23:34.055Z,12.70
2017-12-04T13:26:01.471Z,17.00
2017-12-04T13:28:28.905Z,20.27
2017-12-04T13:30:56.300Z,21.23
2017-12-04T13:33:35.643Z,13.33
2017-12-04T13:36:15.002Z,18.77
2017-12-04T13:38:42.411Z,20.73
2017-12-04T13:41:10.607Z,20.20
2017-12-04T13:43:38.815Z,23.57
2017-12-04T13:46:06.242Z,13.27
2017-12-04T13:48:34.415Z,14.03
2017-12-04T13:51:01.823Z,29.40
2017-12-04T13:53:29.234Z,27.70
2017-12-04T13:55:58.198Z,29.70
2017-12-04T13:58:26.354Z,17.73
2017-12-04T14:00:54.570Z,28.80
2017-12-04T14:03:22.730Z,18.90
2017-12-04T14:05:50.962Z,18.73
2017-12-04T14:08:18.417Z,17.63
2017-12-04T14:10:45.830Z,15.53
2017-12-04T14:13:13.234Z,18.23
2017-12-04T14:15:40.654Z,19.07
2017-12-04T14:18:08.067Z,24.83
2017-12-04T14:20:35.552Z,29.80
2017-12-04T14:23:03.744Z,16.60
2017-12-04T14:25:31.178Z,14.73
2017-12-04T14:27:59.362Z,10.80
2017-12-04T14:30:27.580Z,8.83
2017-12-04T14:32:55.049Z,9.43
2017-12-04T14:35:22.457Z,19.03
2017-12-04T14:37:49.932Z,12.53
2017-12-04T14:40:17.302Z,17.65
2017-12-04T14:42:44.818Z,20.87
2017-12-04T14:45:12.232Z,14.40
2017-12-04T14:47:39.658Z,15.50
2017-12-04T14:50:07.151Z,11.77
2017-12-04T14:52:34.603Z,15.67
2017-12-04T14:55:02.058Z,12.73
2017-12-04T14:57:29.465Z,22.00
2017-12-04T14:59:56.878Z,16.67
2017-12-04T15:02:24.315Z,22.53
2017-12-04T15:04:51.720Z,13.67
2017-12-04T15:07:19.122Z,20.30
2017-12-04T15:09:46.545Z,14.23
2017-12-04T15:12:14.711Z,19.80
2017-12-04T15:14:42.224Z,26.63
2017-12-04T15:17:09.645Z,19.07
2017-12-04T15:19:37.040Z,18.97
2017-12-04T15:22:04.456Z,14.70
2017-12-04T15:24:31.870Z,31.70
2017-12-04T15:27:00.042Z,17.17
2017-12-04T15:29:28.262Z,19.70
2017-12-04T15:31:55.726Z,21.23
2017-12-04T15:34:23.201Z,10.10
2017-12-04T15:36:50.612Z,17.73
2017-12-04T15:39:18.022Z,22.83
2017-12-04T15:41:46.196Z,12.60
2017-12-04T15:44:14.370Z,15.93
2017-12-04T15:46:41.774Z,13.60
2017-12-04T15:49:09.187Z,16.90
2017-12-04T15:51:36.606Z,19.30
2017-12-04T15:54:04.035Z,15.90
2017-12-04T15:56:31.559Z,15.43
2017-12-04T15:58:58.998Z,22.10
2017-12-04T16:01:27.171Z,23.40
2017-12-04T16:03:55.394Z,19.00
2017-12-04T16:06:22.802Z,17.57
2017-12-04T16:08:50.251Z,12.13
2017-12-04T16:11:17.642Z,13.57
2017-12-04T16:13:45.835Z,18.00
2017-12-04T16:16:13.268Z,19.03
2017-12-04T16:18:40.678Z,15.13
2017-12-04T16:21:08.854Z,17.40
2017-12-04T16:23:36.333Z,14.63
2017-12-04T16:26:04.525Z,20.93
2017-12-04T16:28:32.744Z,12.60
2017-12-04T16:31:00.159Z,19.93
2017-12-04T16:33:28.342Z,15.07
2017-12-04T16:35:55.767Z,17.40
2017-12-04T16:38:24.046Z,26.97
2017-12-04T16:40:51.458Z,15.23
2017-12-04T16:43:18.862Z,16.50
2017-12-04T16:45:47.063Z,13.27
2017-12-04T16:48:14.474Z,18.20
2017-12-04T16:50:41.885Z,14.57
2017-12-04T16:53:09.315Z,21.23
2017-12-04T16:55:36.714Z,11.17
2017-12-04T16:58:04.931Z,20.67
2017-12-04T17:00:32.374Z,14.07
2017-12-04T17:03:00.563Z,19.27
2017-12-04T17:05:28.742Z,18.63
2017-12-04T17:07:56.930Z,13.90
2017-12-04T17:10:25.141Z,13.30
2017-12-04T17:12:52.548Z,17.37
2017-12-04T17:15:19.975Z,18.40
2017-12-04T17:17:47.382Z,15.40
2017-12-04T17:20:14.820Z,13.50
2017-12-04T17:22:42.982Z,26.00
2017-12-04T17:25:11.154Z,14.63
2017-12-04T17:27:39.382Z,14.40
2017-12-04T17:30:06.879Z,14.90
2017-12-04T17:32:34.292Z,16.47
2017-12-04T17:35:01.702Z,21.93
2017-12-04T17:37:29.158Z,16.83
2017-12-04T17:39:56.606Z,11.40
2017-12-04T17:42:24.033Z,14.90
2017-12-04T17:44:51.440Z,14.83
2017-12-04T17:47:18.914Z,19.10
2017-12-04T17:49:46.319Z,24.77
2017-12-04T17:52:13.779Z,15.00
2017-12-04T17:54:42.053Z,13.17
2017-12-04T17:57:10.190Z,15.70
2017-12-04T17:59:37.620Z,16.90
2017-12-04T18:02:05.062Z,22.40
2017-12-04T18:04:32.468Z,21.17
2017-12-04T18:06:59.899Z,16.33
2017-12-04T18:09:27.325Z,16.03
2017-12-04T18:11:54.738Z,18.00
2017-12-04T18:14:22.159Z,15.60
2017-12-04T18:16:49.576Z,17.33
2017-12-04T18:19:16.991Z,16.97
2017-12-04T18:21:44.406Z,22.57
2017-12-04T18:24:11.818Z,17.70
2017-12-04T18:26:39.230Z,18.07
2017-12-04T18:29:06.647Z,21.13
2017-12-04T18:31:34.079Z,17.40
2017-12-04T18:34:01.504Z,23.93
2017-12-04T18:36:29.009Z,14.63
2017-12-04T18:38:56.422Z,13.67
2017-12-04T18:41:23.842Z,21.57
2017-12-04T18:43:51.254Z,21.07
2017-12-04T18:46:18.666Z,20.00
2017-12-04T18:48:46.851Z,14.07
2017-12-04T18:51:15.054Z,16.75
2017-12-04T18:53:42.479Z,16.08
2017-12-04T18:56:10.004Z,17.13
2017-12-04T18:58:37.595Z,11.32
2017-12-04T19:01:05.041Z,11.33
2017-12-04T19:03:32.442Z,13.33
2017-12-04T19:05:59.878Z,20.00
2017-12-04T19:08:27.345Z,13.10
2017-12-04T19:10:54.816Z,19.40
2017-12-04T19:13:22.970Z,17.47
2017-12-04T19:15:51.179Z,15.47
2017-12-04T19:18:18.596Z,13.43
2017-12-04T19:20:46.004Z,10.07
2017-12-04T19:23:13.405Z,21.27
2017-12-04T19:25:40.814Z,11.27
2017-12-04T19:28:08.361Z,18.47
2017-12-04T19:30:35.770Z,17.50
2017-12-04T19:33:03.950Z,14.43
2017-12-04T19:35:32.142Z,18.13
2017-12-04T19:38:00.317Z,21.43
2017-12-04T19:40:28.490Z,12.50
2017-12-04T19:42:56.003Z,14.00
2017-12-04T19:45:23.414Z,23.13
2017-12-04T19:47:50.813Z,12.10
2017-12-04T19:50:18.994Z,9.07
2017-12-04T19:52:47.161Z,17.90
2017-12-04T19:55:14.587Z,13.97
2017-12-04T19:57:42.056Z,20.63
2017-12-04T20:00:09.461Z,15.17
2017-12-04T20:02:36.881Z,15.80
2017-12-04T20:05:04.291Z,12.60
2017-12-04T20:07:31.689Z,10.13
2017-12-04T20:09:59.882Z,19.33
2017-12-04T20:12:28.119Z,20.40
2017-12-04T20:14:55.534Z,16.70
2017-12-04T20:17:23.044Z,21.90
2017-12-04T20:19:50.492Z,20.57
2017-12-04T20:22:17.912Z,23.13
2017-12-04T20:24:45.313Z,28.77
2017-12-04T20:27:13.481Z,25.80
2017-12-04T20:29:41.738Z,40.30
2017-12-04T20:32:09.175Z,19.90
2017-12-04T20:34:36.652Z,28.03
2017-12-04T20:37:04.090Z,32.23
2017-12-04T20:39:32.258Z,27.47
2017-12-04T20:42:00.435Z,26.80
2017-12-04T20:44:27.867Z,29.10
2017-12-04T20:46:55.341Z,30.63
2017-12-04T20:49:22.750Z,28.13
2017-12-04T20:51:50.154Z,28.57
2017-12-04T20:54:17.625Z,38.63
2017-12-04T20:56:45.039Z,29.07
2017-12-04T20:59:12.445Z,21.07
2017-12-04T21:01:40.645Z,33.83
2017-12-04T21:04:08.125Z,28.10
2017-12-04T21:06:36.340Z,37.37
2017-12-04T21:09:15.734Z,24.33
2017-12-04T21:11:48.562Z,43.47
2017-12-04T21:14:27.908Z,29.43
2017-12-04T21:17:07.088Z,41.23
2017-12-04T21:19:34.514Z,39.00
2017-12-04T21:22:01.951Z,34.67
2017-12-04T21:24:30.167Z,39.93
2017-12-04T21:26:57.626Z,33.70
2017-12-04T21:29:25.038Z,41.00
2017-12-04T21:31:52.462Z,33.43
2017-12-04T21:34:19.877Z,33.83
2017-12-04T21:36:47.301Z,30.67
2017-12-04T21:39:15.483Z,37.37
2017-12-04T21:41:43.653Z,44.73
2017-12-04T21:44:11.165Z,44.97
2017-12-04T21:46:38.566Z,40.50
2017-12-04T21:49:05.987Z,42.33
2017-12-04T21:51:33.407Z,44.97
2017-12-04T21:54:00.817Z,47.53
2017-12-04T21:56:28.998Z,39.53
2017-12-04T21:58:57.216Z,37.63
2017-12-04T22:01:24.679Z,40.73
2017-12-04T22:03:52.129Z,38.27
2017-12-04T22:06:19.506Z,34.43
2017-12-04T22:08:46.934Z,33.27
2017-12-04T22:11:14.375Z,52.47
2017-12-04T22:13:41.784Z,36.37
2017-12-04T22:16:09.195Z,37.87
2017-12-04T22:18:36.685Z,51.20
2017-12-04T22:21:04.107Z,44.97
2017-12-04T22:23:32.294Z,38.80
2017-12-04T22:25:59.710Z,43.30
2017-12-04T22:28:27.125Z,50.07
2017-12-04T22:30:55.302Z,49.93
2017-12-04T22:33:23.500Z,40.97
2017-12-04T22:35:51.682Z,38.90
2017-12-04T22:38:19.870Z,48.17
2017-12-04T22:40:48.049Z,37.40
2017-12-04T22:43:16.254Z,49.83
2017-12-04T22:45:43.665Z,40.03
2017-12-04T22:48:11.086Z,49.63
2017-12-04T22:50:39.395Z,35.07
2017-12-04T22:53:07.570Z,51.83
2017-12-04T22:55:34.995Z,48.43
2017-12-04T22:58:02.402Z,38.30
2017-12-04T23:00:30.610Z,35.67
2017-12-04T23:02:58.906Z,35.40
2017-12-04T23:05:26.325Z,41.47
2017-12-04T23:07:54.540Z,48.70
2017-12-04T23:10:23.468Z,44.03
2017-12-04T23:12:50.870Z,32.70
2017-12-04T23:15:19.058Z,36.73
2017-12-04T23:17:46.467Z,38.60
2017-12-04T23:20:13.874Z,37.80
2017-12-04T23:22:41.302Z,40.03
2017-12-04T23:25:08.697Z,42.10
2017-12-04T23:27:36.134Z,32.33
2017-12-04T23:30:04.340Z,42.73
2017-12-04T23:32:31.757Z,25.67
2017-12-04T23:34:59.971Z,32.80
2017-12-04T23:37:28.151Z,32.47
2017-12-04T23:39:55.561Z,30.37
2017-12-04T23:42:22.970Z,37.33
2017-12-04T23:44:51.157Z,38.03
2017-12-04T23:47:19.318Z,37.63
2017-12-04T23:49:46.837Z,37.07
2017-12-04T23:52:14.299Z,30.50
2017-12-04T23:54:41.726Z,38.53
2017-12-04T23:57:09.242Z,38.60
2017-12-04T23:59:36.646Z,37.10
